createdAt,value
2022-09-04T00:01:43.164Z,3.88
2022-09-04T00:04:25.373Z,3.60
2022-09-04T00:07:02.183Z,3.75
2022-09-04T00:09:43.395Z,4.38
2022-09-04T00:12:11.260Z,4.45
2022-09-04T00:14:44.337Z,3.60
2022-09-04T00:17:19.946Z,3.45
2022-09-04T00:19:53.940Z,3.50
2022-09-04T00:22:36.159Z,4.15
2022-09-04T00:25:14.279Z,4.20
2022-09-04T00:27:46.979Z,4.22
2022-09-04T00:30:19.818Z,3.95
2022-09-04T00:32:55.751Z,3.83
2022-09-04T00:35:31.325Z,4.32
2022-09-04T00:38:05.017Z,6.60
2022-09-04T00:40:38.359Z,3.92
2022-09-04T00:43:35.190Z,3.50
2022-09-04T00:46:25.536Z,3.78
2022-09-04T00:49:22.780Z,4.38
2022-09-04T00:51:57.778Z,4.65
2022-09-04T00:54:48.699Z,4.75
2022-09-04T00:57:45.113Z,4.30
2022-09-04T01:00:15.468Z,6.32
2022-09-04T01:03:09.360Z,4.18
2022-09-04T01:05:45.966Z,4.35
2022-09-04T01:08:24.491Z,4.35
2022-09-04T01:11:07.943Z,3.90
2022-09-04T01:13:42.309Z,4.65
2022-09-04T01:16:16.685Z,5.03
2022-09-04T01:18:56.339Z,4.68
2022-09-04T01:21:56.347Z,4.95
2022-09-04T01:24:39.456Z,5.32
2022-09-04T01:27:10.996Z,4.90
2022-09-04T01:29:50.295Z,4.87
2022-09-04T01:32:30.206Z,5.55
2022-09-04T01:35:06.962Z,5.43
2022-09-04T01:37:50.920Z,5.72
2022-09-04T01:40:35.180Z,5.50
2022-09-04T01:43:11.291Z,5.25
2022-09-04T01:45:54.223Z,5.30
2022-09-04T01:48:31.143Z,5.43
2022-09-04T01:51:07.295Z,5.63
2022-09-04T01:53:38.287Z,5.80
2022-09-04T01:56:14.861Z,6.03
2022-09-04T01:58:51.481Z,6.22
2022-09-04T02:01:24.891Z,5.57
2022-09-04T02:04:01.486Z,5.78
2022-09-04T02:06:34.206Z,4.50
2022-09-04T02:09:15.472Z,4.25
2022-09-04T02:11:51.344Z,4.95
2022-09-04T02:14:37.404Z,5.95
2022-09-04T02:17:14.363Z,5.03
2022-09-04T02:20:05.689Z,5.10
2022-09-04T02:22:44.871Z,5.57
2022-09-04T02:25:21.749Z,5.63
2022-09-04T02:27:58.096Z,5.55
2022-09-04T02:30:33.509Z,5.70
2022-09-04T02:33:09.514Z,5.10
2022-09-04T02:35:41.035Z,5.65
2022-09-04T02:38:18.092Z,5.30
2022-09-04T02:40:52.818Z,5.57
2022-09-04T02:43:39.696Z,5.45
2022-09-04T02:46:18.870Z,5.43
2022-09-04T02:48:59.614Z,5.13
2022-09-04T02:51:41.098Z,5.07
2022-09-04T02:54:15.596Z,4.90
2022-09-04T02:56:49.978Z,6.25
2022-09-04T02:59:39.288Z,5.45
2022-09-04T03:02:19.126Z,5.13
2022-09-04T03:04:53.664Z,5.50
2022-09-04T03:07:29.278Z,5.47
2022-09-04T03:10:06.092Z,5.50
2022-09-04T03:12:41.159Z,5.70
2022-09-04T03:15:17.627Z,6.00
2022-09-04T03:17:53.415Z,5.38
2022-09-04T03:20:24.756Z,5.85
2022-09-04T03:22:59.893Z,6.75
2022-09-04T03:25:53.979Z,8.25
2022-09-04T03:28:32.351Z,8.00
2022-09-04T03:31:06.051Z,6.63
2022-09-04T03:33:43.418Z,7.40
2022-09-04T03:36:17.140Z,7.25
2022-09-04T03:39:02.382Z,6.32
2022-09-04T03:41:37.149Z,6.55
2022-09-04T03:44:18.301Z,6.28
2022-09-04T03:46:57.798Z,6.28
2022-09-04T03:49:44.159Z,7.07
2022-09-04T03:52:21.223Z,6.10
2022-09-04T03:55:05.508Z,8.43
2022-09-04T03:58:03.408Z,5.18
2022-09-04T04:00:40.801Z,6.18
2022-09-04T04:03:31.301Z,5.70
2022-09-04T04:06:14.844Z,5.45
2022-09-04T04:08:56.704Z,5.90
2022-09-04T04:11:46.679Z,5.45
2022-09-04T04:14:37.577Z,6.03
2022-09-04T04:17:21.139Z,6.53
2022-09-04T04:20:00.015Z,6.32
2022-09-04T04:22:47.278Z,6.38
2022-09-04T04:25:42.947Z,7.28
2022-09-04T04:28:25.680Z,6.55
2022-09-04T04:30:55.758Z,11.95
2022-09-04T04:33:44.922Z,25.92
2022-09-04T04:36:23.002Z,7.97
2022-09-04T04:39:05.712Z,6.97
2022-09-04T04:42:07.630Z,8.00
2022-09-04T04:45:04.966Z,6.15
2022-09-04T04:47:52.065Z,6.85
2022-09-04T04:50:27.206Z,7.90
2022-09-04T04:53:04.658Z,7.05
2022-09-04T04:55:40.557Z,7.38
2022-09-04T04:58:44.405Z,7.57
2022-09-04T05:01:24.428Z,7.80
2022-09-04T05:04:06.842Z,6.20
2022-09-04T05:06:42.547Z,7.93
2022-09-04T05:09:17.519Z,7.20
2022-09-04T05:11:55.029Z,8.02
2022-09-04T05:14:34.245Z,8.90
2022-09-04T05:17:14.170Z,8.00
2022-09-04T05:19:52.305Z,6.20
2022-09-04T05:22:26.450Z,7.40
2022-09-04T05:25:03.925Z,5.68
2022-09-04T05:27:45.832Z,7.00
2022-09-04T05:30:18.919Z,7.93
2022-09-04T05:32:54.926Z,7.13
2022-09-04T05:35:35.337Z,7.38
2022-09-04T05:38:09.874Z,7.72
2022-09-04T05:40:55.259Z,7.85
2022-09-04T05:43:34.472Z,7.63
2022-09-04T05:46:08.771Z,7.75
2022-09-04T05:48:45.563Z,7.85
2022-09-04T05:51:49.892Z,6.65
2022-09-04T05:54:58.718Z,8.68
2022-09-04T05:57:41.739Z,8.55
2022-09-04T06:00:16.144Z,7.28
2022-09-04T06:03:11.810Z,7.40
2022-09-04T06:05:58.117Z,7.40
2022-09-04T06:08:37.805Z,7.10
2022-09-04T06:11:35.521Z,7.30
2022-09-04T06:14:24.657Z,7.03
2022-09-04T06:17:09.970Z,7.20
2022-09-04T06:19:58.991Z,7.05
2022-09-04T06:23:03.545Z,7.13
2022-09-04T06:25:43.523Z,6.40
2022-09-04T06:28:36.324Z,7.03
2022-09-04T06:33:57.334Z,7.23
2022-09-04T06:36:40.270Z,6.60
2022-09-04T06:39:23.707Z,6.82
2022-09-04T06:42:10.034Z,6.40
2022-09-04T06:44:52.240Z,6.13
2022-09-04T06:47:26.675Z,8.23
2022-09-04T06:50:09.725Z,6.43
2022-09-04T06:52:48.110Z,9.45
2022-09-04T06:55:25.425Z,7.28
2022-09-04T06:58:18.283Z,8.70
2022-09-04T07:00:53.523Z,6.75
2022-09-04T07:03:39.874Z,9.57
2022-09-04T07:06:15.046Z,10.50
2022-09-04T07:09:00.174Z,8.45
2022-09-04T07:11:44.270Z,10.40
2022-09-04T07:14:38.593Z,11.38
2022-09-04T07:17:12.467Z,10.38
2022-09-04T07:19:57.166Z,10.57
2022-09-04T07:22:47.280Z,11.45
2022-09-04T07:25:22.249Z,11.93
2022-09-04T07:28:05.463Z,10.27
2022-09-04T07:30:43.168Z,11.48
2022-09-04T07:33:18.076Z,14.43
2022-09-04T07:35:52.611Z,10.50
2022-09-04T07:38:30.087Z,11.10
2022-09-04T07:41:10.546Z,8.45
2022-09-04T07:43:54.487Z,10.05
2022-09-04T07:46:33.497Z,11.10
2022-09-04T07:49:09.556Z,13.00
2022-09-04T07:51:44.322Z,12.95
2022-09-04T07:54:45.330Z,11.80
2022-09-04T07:57:34.193Z,13.63
2022-09-04T08:00:09.533Z,10.45
2022-09-04T08:02:56.705Z,9.95
2022-09-04T08:05:28.682Z,10.15
2022-09-04T08:08:16.653Z,13.40
2022-09-04T08:11:00.624Z,12.80
2022-09-04T08:14:03.203Z,14.00
2022-09-04T08:16:40.553Z,13.20
2022-09-04T08:19:21.214Z,14.32
2022-09-04T08:21:51.017Z,11.50
2022-09-04T08:24:44.500Z,12.68
2022-09-04T08:27:23.719Z,15.50
2022-09-04T08:30:07.316Z,14.65
2022-09-04T08:33:01.910Z,16.95
2022-09-04T08:35:34.210Z,15.80
2022-09-04T08:38:16.101Z,13.18
2022-09-04T08:41:18.234Z,12.95
2022-09-04T08:44:14.288Z,10.57
2022-09-04T08:47:20.521Z,14.07
2022-09-04T08:50:13.562Z,13.70
2022-09-04T08:53:11.300Z,15.63
2022-09-04T08:56:15.950Z,14.38
2022-09-04T08:59:31.068Z,12.77
2022-09-04T09:02:12.076Z,11.35
2022-09-04T09:05:27.893Z,10.30
2022-09-04T09:08:14.626Z,12.20
2022-09-04T09:11:15.879Z,9.43
2022-09-04T09:16:43.784Z,9.95
2022-09-04T09:19:22.744Z,11.57
2022-09-04T09:22:09.412Z,10.57
2022-09-04T09:25:11.240Z,12.25
2022-09-04T09:28:20.693Z,11.43
2022-09-04T09:31:16.873Z,10.93
2022-09-04T09:34:35.035Z,13.40
2022-09-04T09:37:50.382Z,12.02
2022-09-04T09:40:42.078Z,13.82
2022-09-04T09:43:34.608Z,15.57
2022-09-04T09:49:15.004Z,15.07
2022-09-04T09:52:14.559Z,14.05
2022-09-04T09:55:21.783Z,15.15
2022-09-04T09:58:36.382Z,12.02
2022-09-04T10:01:19.214Z,12.77
2022-09-04T10:04:28.695Z,10.95
2022-09-04T10:07:30.813Z,10.68
2022-09-04T10:10:18.402Z,10.40
2022-09-04T10:13:27.201Z,10.55
2022-09-04T10:16:36.616Z,9.70
2022-09-04T10:19:43.186Z,11.18
2022-09-04T10:22:49.183Z,14.38
2022-09-04T10:25:49.123Z,12.45
2022-09-04T10:28:30.934Z,12.25
2022-09-04T10:31:34.077Z,8.43
2022-09-04T10:34:26.444Z,11.20
2022-09-04T10:39:55.390Z,9.05
2022-09-04T10:42:37.327Z,8.45
2022-09-04T10:45:17.970Z,8.50
2022-09-04T10:48:08.012Z,8.38
2022-09-04T10:51:01.943Z,9.27
2022-09-04T10:54:14.755Z,9.07
2022-09-04T10:59:38.589Z,7.40
2022-09-04T11:02:35.925Z,7.60
2022-09-04T11:05:25.052Z,10.85
2022-09-04T11:08:21.094Z,7.15
2022-09-04T11:11:15.490Z,8.77
2022-09-04T11:14:03.710Z,6.50
2022-09-04T11:16:50.794Z,5.55
2022-09-04T11:19:44.901Z,5.50
2022-09-04T11:22:52.575Z,6.32
2022-09-04T11:26:02.864Z,6.13
2022-09-04T11:29:01.298Z,5.80
2022-09-04T11:31:48.423Z,6.07
2022-09-04T11:34:55.676Z,4.70
2022-09-04T11:37:44.315Z,5.20
2022-09-04T11:40:40.514Z,5.90
2022-09-04T11:43:30.219Z,3.70
2022-09-04T11:46:21.256Z,4.78
2022-09-04T11:49:07.904Z,4.20
2022-09-04T11:52:04.996Z,3.20
2022-09-04T11:54:54.264Z,3.28
2022-09-04T11:57:36.155Z,3.53
2022-09-04T12:00:11.448Z,5.15
2022-09-04T12:03:21.284Z,6.13
2022-09-04T12:06:12.448Z,3.70
2022-09-04T12:09:08.465Z,4.18
2022-09-04T12:12:16.561Z,5.75
2022-09-04T12:15:18.306Z,6.63
2022-09-04T12:18:31.307Z,5.07
2022-09-04T12:21:25.573Z,4.20
2022-09-04T12:24:21.483Z,4.70
2022-09-04T12:27:11.384Z,4.85
2022-09-04T12:30:05.838Z,3.25
2022-09-04T12:32:58.841Z,4.20
2022-09-04T12:35:44.783Z,5.45
2022-09-04T12:38:32.717Z,6.60
2022-09-04T12:41:09.882Z,5.63
2022-09-04T12:43:52.352Z,6.40
2022-09-04T12:46:35.684Z,4.25
2022-09-04T12:49:19.424Z,6.82
2022-09-04T12:51:55.279Z,4.32
2022-09-04T12:54:35.118Z,10.57
2022-09-04T12:57:22.712Z,5.28
2022-09-04T13:00:05.025Z,5.50
2022-09-04T13:02:46.914Z,3.67
2022-09-04T13:05:36.779Z,4.85
2022-09-04T13:08:20.228Z,5.65
2022-09-04T13:11:01.453Z,5.68
2022-09-04T13:13:42.977Z,6.10
2022-09-04T13:16:20.433Z,5.55
2022-09-04T13:19:00.250Z,4.32
2022-09-04T13:21:44.324Z,4.43
2022-09-04T13:24:25.486Z,2.85
2022-09-04T13:27:09.126Z,2.97
2022-09-04T13:29:50.617Z,2.90
2022-09-04T13:32:52.095Z,3.00
2022-09-04T13:35:36.756Z,3.65
2022-09-04T13:38:26.380Z,3.35
2022-09-04T13:41:30.455Z,2.30
2022-09-04T13:44:23.499Z,2.05
2022-09-04T13:46:59.622Z,2.88
2022-09-04T13:49:32.134Z,2.15
2022-09-04T13:52:06.689Z,3.28
2022-09-04T13:54:39.543Z,1.95
2022-09-04T13:57:12.368Z,2.40
2022-09-04T13:59:43.518Z,2.13
2022-09-04T14:02:15.161Z,3.93
2022-09-04T14:04:46.732Z,2.22
2022-09-04T14:07:19.498Z,1.92
2022-09-04T14:09:51.255Z,1.90
2022-09-04T14:12:41.600Z,2.50
2022-09-04T14:15:33.264Z,2.10
2022-09-04T14:18:14.093Z,1.60
2022-09-04T14:21:01.413Z,3.58
2022-09-04T14:23:40.999Z,4.20
2022-09-04T14:26:21.473Z,3.80
2022-09-04T14:28:57.455Z,2.92
2022-09-04T14:31:35.208Z,2.10
2022-09-04T14:34:16.809Z,3.53
2022-09-04T14:36:55.192Z,4.28
2022-09-04T14:39:31.376Z,2.10
2022-09-04T14:42:16.243Z,2.65
2022-09-04T14:45:01.605Z,2.05
2022-09-04T14:47:42.237Z,3.92
2022-09-04T14:50:13.322Z,1.95
2022-09-04T14:52:44.888Z,3.43
2022-09-04T14:55:17.366Z,2.08
2022-09-04T14:57:51.454Z,1.70
2022-09-04T15:00:21.193Z,2.40
2022-09-04T15:03:00.757Z,3.85
2022-09-04T15:05:34.119Z,2.55
2022-09-04T15:08:03.919Z,1.80
2022-09-04T15:10:37.054Z,1.85
2022-09-04T15:13:42.698Z,2.22
2022-09-04T15:16:20.484Z,2.65
2022-09-04T15:18:59.015Z,6.35
2022-09-04T15:21:34.815Z,2.55
2022-09-04T15:24:13.052Z,3.30
2022-09-04T15:26:46.707Z,4.25
2022-09-04T15:29:20.283Z,4.50
2022-09-04T15:31:48.384Z,2.67
2022-09-04T15:34:25.587Z,2.42
2022-09-04T15:36:54.590Z,2.85
2022-09-04T15:39:30.989Z,2.35
2022-09-04T15:42:00.084Z,2.22
2022-09-04T15:44:33.364Z,1.90
2022-09-04T15:47:07.295Z,2.85
2022-09-04T15:49:47.608Z,3.10
2022-09-04T15:52:31.247Z,2.70
2022-09-04T15:55:10.717Z,2.83
2022-09-04T15:57:56.012Z,4.25
2022-09-04T16:00:27.277Z,3.60
2022-09-04T16:03:06.884Z,3.78
2022-09-04T16:05:45.091Z,2.30
2022-09-04T16:08:23.594Z,4.22
2022-09-04T16:10:59.948Z,3.10
2022-09-04T16:13:57.822Z,4.18
2022-09-04T16:16:31.284Z,3.80
2022-09-04T16:19:08.701Z,2.55
2022-09-04T16:21:48.140Z,3.03
2022-09-04T16:24:19.869Z,4.03
2022-09-04T16:26:50.480Z,3.33
2022-09-04T16:29:36.501Z,6.78
2022-09-04T16:32:09.693Z,3.90
2022-09-04T16:34:46.504Z,3.70
2022-09-04T16:37:21.636Z,3.92
2022-09-04T16:40:14.179Z,2.80
2022-09-04T16:42:47.357Z,3.00
2022-09-04T16:45:20.958Z,2.55
2022-09-04T16:47:59.093Z,5.10
2022-09-04T16:50:42.138Z,3.63
2022-09-04T16:53:17.525Z,5.35
2022-09-04T16:55:58.162Z,2.85
2022-09-04T16:58:39.865Z,4.35
2022-09-04T17:01:15.597Z,3.17
2022-09-04T17:04:13.251Z,2.83
2022-09-04T17:06:54.231Z,6.22
2022-09-04T17:09:29.017Z,7.05
2022-09-04T17:12:01.477Z,5.50
2022-09-04T17:14:36.242Z,3.88
2022-09-04T17:17:30.307Z,4.03
2022-09-04T17:20:08.398Z,2.53
2022-09-04T17:28:56.659Z,4.18
2022-09-04T17:29:04.062Z,2.75
2022-09-04T17:29:17.726Z,3.75
2022-09-04T17:31:45.618Z,3.72
2022-09-04T17:40:33.973Z,3.10
2022-09-04T17:40:49.733Z,2.58
2022-09-04T17:40:56.104Z,2.95
2022-09-04T17:43:24.454Z,3.03
2022-09-04T17:46:06.697Z,2.63
2022-09-04T17:48:41.549Z,4.53
2022-09-04T17:51:17.410Z,4.47
2022-09-04T17:53:51.620Z,4.13
2022-09-04T17:56:25.146Z,2.88
2022-09-04T17:59:00.858Z,3.58
2022-09-04T18:01:34.693Z,4.50
2022-09-04T18:04:22.398Z,3.42
2022-09-04T18:06:59.808Z,4.43
2022-09-04T18:09:34.861Z,3.47
2022-09-04T18:12:12.316Z,3.80
2022-09-04T18:15:12.921Z,7.03
2022-09-04T18:17:51.001Z,3.45
2022-09-04T18:20:31.264Z,2.50
2022-09-04T18:23:17.683Z,2.80
2022-09-04T18:25:51.524Z,3.50
2022-09-04T18:28:26.467Z,3.10
2022-09-04T18:37:07.541Z,4.22
2022-09-04T18:37:18.214Z,3.92
2022-09-04T18:37:22.864Z,3.10
2022-09-04T18:39:50.559Z,3.45
2022-09-04T18:48:33.357Z,3.40
2022-09-04T18:50:25.371Z,2.90
2022-09-04T18:50:51.994Z,3.67
2022-09-04T18:51:21.046Z,4.25
2022-09-04T18:53:53.847Z,4.38
2022-09-04T18:58:58.308Z,3.40
2022-09-04T19:01:32.797Z,4.88
2022-09-04T19:04:30.981Z,8.05
2022-09-04T19:07:07.053Z,5.65
2022-09-04T19:09:59.884Z,6.20
2022-09-04T19:12:47.506Z,4.25
2022-09-04T19:15:37.716Z,3.78
2022-09-04T19:18:14.963Z,4.18
2022-09-04T19:20:49.123Z,7.95
2022-09-04T19:23:27.171Z,6.80
2022-09-04T19:25:57.529Z,4.63
2022-09-04T19:28:28.229Z,11.15
2022-09-04T19:31:01.705Z,4.00
2022-09-04T19:33:39.014Z,3.92
2022-09-04T19:36:15.938Z,4.35
2022-09-04T19:44:50.322Z,5.70
2022-09-04T19:46:03.259Z,5.60
2022-09-04T19:46:08.647Z,5.13
2022-09-04T19:47:38.682Z,4.90
2022-09-04T19:53:17.966Z,7.55
2022-09-04T19:53:40.657Z,5.63
2022-09-04T19:56:08.379Z,6.38
2022-09-04T19:58:42.648Z,6.05
2022-09-04T20:01:16.124Z,7.40
2022-09-04T20:03:49.650Z,6.32
2022-09-04T20:06:25.448Z,7.43
2022-09-04T20:09:02.765Z,7.88
2022-09-04T20:11:36.235Z,7.25
2022-09-04T20:14:13.804Z,8.25
2022-09-04T20:16:52.538Z,6.00
2022-09-04T20:19:27.793Z,5.28
2022-09-04T20:22:01.831Z,6.43
2022-09-04T20:24:41.986Z,6.03
2022-09-04T20:27:37.363Z,5.10
2022-09-04T20:30:12.086Z,5.32
2022-09-04T20:32:49.491Z,5.65
2022-09-04T20:35:33.869Z,5.88
2022-09-04T20:38:12.461Z,6.18
2022-09-04T20:40:47.077Z,5.75
2022-09-04T20:43:26.618Z,4.47
2022-09-04T20:51:55.235Z,5.90
2022-09-04T20:52:53.855Z,5.70
2022-09-04T20:52:54.895Z,4.97
2022-09-04T20:55:10.330Z,4.72
2022-09-04T21:01:29.021Z,4.05
2022-09-04T21:03:08.357Z,5.35
2022-09-04T21:03:57.257Z,5.78
2022-09-04T21:06:32.445Z,5.80
2022-09-04T21:09:11.437Z,4.95
2022-09-04T21:11:43.477Z,8.75
2022-09-04T21:14:17.854Z,5.90
2022-09-04T21:16:59.582Z,4.65
2022-09-04T21:19:45.840Z,4.65
2022-09-04T21:22:32.938Z,6.60
2022-09-04T21:25:24.440Z,5.20
2022-09-04T21:28:27.476Z,7.32
2022-09-04T21:31:10.041Z,4.22
2022-09-04T21:33:45.911Z,4.45
2022-09-04T21:36:26.413Z,4.78
2022-09-04T21:39:42.285Z,6.13
2022-09-04T21:42:41.891Z,5.43
2022-09-04T21:45:24.351Z,4.53
2022-09-04T21:48:28.615Z,3.75
2022-09-04T21:51:28.793Z,4.65
2022-09-04T21:56:18.074Z,5.72
2022-09-04T22:02:27.596Z,6.10
2022-09-04T22:02:42.418Z,5.22
2022-09-04T22:04:02.330Z,5.93
2022-09-04T22:09:38.380Z,8.90
2022-09-04T22:13:37.629Z,7.72
2022-09-04T22:13:41.042Z,8.00
2022-09-04T22:15:48.141Z,8.23
2022-09-04T22:18:42.416Z,7.68
2022-09-04T22:21:25.424Z,6.57
2022-09-04T22:24:14.554Z,6.90
2022-09-04T22:27:10.365Z,8.88
2022-09-04T22:29:52.772Z,6.40
2022-09-04T22:35:36.313Z,4.75
2022-09-04T22:38:31.213Z,5.68
2022-09-04T22:41:19.232Z,4.85
2022-09-04T22:43:58.705Z,4.55
2022-09-04T22:46:48.012Z,5.93
2022-09-04T22:49:47.405Z,6.57
2022-09-04T22:52:29.698Z,7.00
2022-09-04T22:55:29.237Z,6.55
2022-09-04T22:58:15.510Z,6.47
2022-09-04T23:01:03.295Z,6.45
2022-09-04T23:03:51.817Z,6.97
2022-09-04T23:09:07.299Z,7.00
2022-09-04T23:13:49.423Z,7.43
2022-09-04T23:13:57.804Z,5.45
2022-09-04T23:16:49.375Z,7.18
2022-09-04T23:25:50.757Z,6.00
2022-09-04T23:26:33.209Z,6.95
2022-09-04T23:26:53.587Z,5.10
2022-09-04T23:29:06.561Z,6.32
2022-09-04T23:32:07.490Z,5.90
2022-09-04T23:35:13.798Z,7.35
2022-09-04T23:38:09.071Z,7.25
2022-09-04T23:40:42.006Z,5.57
2022-09-04T23:43:32.513Z,5.90
2022-09-04T23:46:27.632Z,6.00
2022-09-04T23:49:33.275Z,6.95
2022-09-04T23:52:07.923Z,6.15
2022-09-04T23:54:54.071Z,7.10
2022-09-04T23:57:29.034Z,7.72
